RYR8CG GMMX-LEPA
Flight info
| Callsign | RYR8CG |
|---|---|
| Flight time | 1h 39m |
| Altitude | 36000 |
| Route | OBOGA DCT ABDOR UH400 AGOVA UM372 FES UG850 BERUM DCT GONZA DCT AMR DCT DOSEK DCT RESTU DCT ALT DCT SUMMO DCT MITOS DCT BRUNO DCT RUXET |
| Aircraft | B738/M-SDE2E3FGHIRWXY/LB1 |
Departure
| Time | 2026-05-08 17:05 |
|---|---|
| Airport | Marrakesh Menara Airport (GMMX) |
Arrival
| Time | 2026-05-08 18:45 |
|---|---|
| Airport | Palma de Mallorca Airport (LEPA) |
| Time | Latitude | Longitude | Altitude | Speed | Heading |
|---|---|---|---|---|---|
| 2026-05-08 16:45 | 31.60202 | -8.02301 | 1548 ft | 0 kts | 275° |
| 2026-05-08 17:00 | 31.60199 | -8.02275 | 1540 ft | 4 kts | 285° |
| 2026-05-08 17:00 | 31.60190 | -8.02246 | 1540 ft | 4 kts | 303° |
| 2026-05-08 17:01 | 31.60172 | -8.02223 | 1544 ft | 4 kts | 331° |
| 2026-05-08 17:01 | 31.60153 | -8.02216 | 1538 ft | 0 kts | 6° |
| 2026-05-08 17:03 | 31.60162 | -8.02215 | 1543 ft | 3 kts | 6° |
| 2026-05-08 17:03 | 31.60202 | -8.02211 | 1542 ft | 8 kts | 4° |
| 2026-05-08 17:03 | 31.60277 | -8.02204 | 1548 ft | 13 kts | 4° |
| 2026-05-08 17:04 | 31.60381 | -8.02185 | 1539 ft | 16 kts | 17° |
| 2026-05-08 17:04 | 31.60486 | -8.02160 | 1540 ft | 15 kts | 6° |
| 2026-05-08 17:04 | 31.60563 | -8.02205 | 1545 ft | 15 kts | 276° |
| 2026-05-08 17:04 | 31.60593 | -8.02537 | 1542 ft | 75 kts | 276° |
| 2026-05-08 17:05 | 31.60666 | -8.03404 | 1541 ft | 136 kts | 276° |
| 2026-05-08 17:05 | 31.60772 | -8.04653 | 1794 ft | 167 kts | 275° |
| 2026-05-08 17:05 | 31.60879 | -8.06071 | 2404 ft | 177 kts | 276° |
| 2026-05-08 17:05 | 31.61016 | -8.07496 | 3219 ft | 179 kts | 277° |
| 2026-05-08 17:06 | 31.61160 | -8.08987 | 3769 ft | 197 kts | 276° |
| 2026-05-08 17:06 | 31.61316 | -8.10706 | 3955 ft | 226 kts | 276° |
| 2026-05-08 17:06 | 31.61483 | -8.12595 | 4504 ft | 237 kts | 276° |
| 2026-05-08 17:06 | 31.61655 | -8.14542 | 5360 ft | 241 kts | 275° |
| 2026-05-08 17:07 | 31.62007 | -8.16462 | 6280 ft | 244 kts | 292° |
| 2026-05-08 17:07 | 31.63025 | -8.18094 | 7019 ft | 256 kts | 316° |
| 2026-05-08 17:07 | 31.64578 | -8.19179 | 7742 ft | 267 kts | 339° |
| 2026-05-08 17:07 | 31.66492 | -8.19403 | 8156 ft | 291 kts | 10° |
| 2026-05-08 17:08 | 31.68387 | -8.18461 | 8767 ft | 304 kts | 39° |
| 2026-05-08 17:08 | 31.69766 | -8.16590 | 9521 ft | 306 kts | 63° |
| 2026-05-08 17:08 | 31.70634 | -8.14300 | 10241 ft | 311 kts | 73° |
| 2026-05-08 17:08 | 31.71351 | -8.11799 | 10480 ft | 335 kts | 75° |
| 2026-05-08 17:09 | 31.72052 | -8.09136 | 11001 ft | 346 kts | 75° |
| 2026-05-08 17:09 | 31.72771 | -8.06413 | 11699 ft | 352 kts | 75° |
| 2026-05-08 17:09 | 31.73516 | -8.03651 | 12445 ft | 357 kts | 74° |
| 2026-05-08 17:09 | 31.74285 | -8.00857 | 13160 ft | 362 kts | 74° |
| 2026-05-08 17:10 | 31.75069 | -7.98058 | 13830 ft | 369 kts | 73° |
| 2026-05-08 17:10 | 31.75880 | -7.95184 | 14514 ft | 372 kts | 73° |
| 2026-05-08 17:10 | 31.76705 | -7.92281 | 15191 ft | 377 kts | 73° |
| 2026-05-08 17:10 | 31.77541 | -7.89342 | 15848 ft | 382 kts | 73° |
| 2026-05-08 17:11 | 31.78389 | -7.86361 | 16461 ft | 388 kts | 73° |
| 2026-05-08 17:11 | 31.79249 | -7.83339 | 17092 ft | 393 kts | 73° |
| 2026-05-08 17:11 | 31.80117 | -7.80281 | 17767 ft | 397 kts | 73° |
| 2026-05-08 17:11 | 31.80998 | -7.77178 | 18358 ft | 402 kts | 73° |
| 2026-05-08 17:12 | 31.81889 | -7.74038 | 18862 ft | 408 kts | 73° |
| 2026-05-08 17:12 | 31.82792 | -7.70849 | 19377 ft | 414 kts | 74° |
| 2026-05-08 17:12 | 31.83706 | -7.67614 | 19880 ft | 420 kts | 74° |
| 2026-05-08 17:12 | 31.84635 | -7.64327 | 20401 ft | 426 kts | 74° |
| 2026-05-08 17:13 | 31.85573 | -7.61004 | 20891 ft | 431 kts | 75° |
| 2026-05-08 17:13 | 31.86523 | -7.57637 | 21376 ft | 437 kts | 75° |
| 2026-05-08 17:13 | 31.87484 | -7.54224 | 21852 ft | 442 kts | 75° |
| 2026-05-08 17:13 | 31.88460 | -7.50772 | 22328 ft | 448 kts | 73° |
| 2026-05-08 17:14 | 31.89673 | -7.47363 | 22786 ft | 456 kts | 65° |
| 2026-05-08 17:14 | 31.91149 | -7.44030 | 23261 ft | 461 kts | 63° |
| 2026-05-08 17:14 | 31.92686 | -7.40701 | 23669 ft | 466 kts | 63° |
| 2026-05-08 17:14 | 31.94241 | -7.37333 | 24099 ft | 470 kts | 63° |
| 2026-05-08 17:15 | 31.95787 | -7.33930 | 24558 ft | 472 kts | 63° |
| 2026-05-08 17:15 | 31.97318 | -7.30505 | 25013 ft | 474 kts | 64° |
| 2026-05-08 17:15 | 31.98847 | -7.27049 | 25425 ft | 478 kts | 64° |
| 2026-05-08 17:15 | 32.00387 | -7.23559 | 25822 ft | 482 kts | 64° |
| 2026-05-08 17:16 | 32.01937 | -7.20047 | 26192 ft | 485 kts | 64° |
| 2026-05-08 17:16 | 32.03501 | -7.16515 | 26618 ft | 487 kts | 64° |
| 2026-05-08 17:16 | 32.05077 | -7.12970 | 27025 ft | 490 kts | 63° |
| 2026-05-08 17:16 | 32.06665 | -7.09402 | 27409 ft | 493 kts | 63° |
| 2026-05-08 17:17 | 32.08265 | -7.05806 | 27773 ft | 497 kts | 64° |
| 2026-05-08 17:17 | 32.09869 | -7.02192 | 28137 ft | 499 kts | 63° |
| 2026-05-08 17:17 | 32.11482 | -6.98552 | 28543 ft | 502 kts | 63° |
| 2026-05-08 17:17 | 32.13102 | -6.94892 | 28910 ft | 505 kts | 63° |
| 2026-05-08 17:18 | 32.14731 | -6.91205 | 29249 ft | 508 kts | 63° |
| 2026-05-08 17:18 | 32.16368 | -6.87499 | 29635 ft | 511 kts | 64° |
| 2026-05-08 17:18 | 32.18018 | -6.83758 | 29890 ft | 515 kts | 64° |
| 2026-05-08 17:18 | 32.19675 | -6.79999 | 30219 ft | 517 kts | 64° |
| 2026-05-08 17:19 | 32.21335 | -6.76238 | 30549 ft | 518 kts | 64° |
| 2026-05-08 17:19 | 32.23000 | -6.72464 | 30841 ft | 519 kts | 64° |
| 2026-05-08 17:19 | 32.24674 | -6.68670 | 31118 ft | 521 kts | 64° |
| 2026-05-08 17:19 | 32.26349 | -6.64867 | 31406 ft | 523 kts | 64° |
| 2026-05-08 17:20 | 32.28028 | -6.61049 | 31753 ft | 523 kts | 63° |
| 2026-05-08 17:20 | 32.29697 | -6.57249 | 32143 ft | 521 kts | 64° |
| 2026-05-08 17:20 | 32.31366 | -6.53447 | 32564 ft | 520 kts | 63° |
| 2026-05-08 17:20 | 32.33027 | -6.49657 | 32961 ft | 518 kts | 63° |
| 2026-05-08 17:21 | 32.34661 | -6.45924 | 33281 ft | 518 kts | 63° |
| 2026-05-08 17:21 | 32.36333 | -6.42100 | 33632 ft | 517 kts | 63° |
| 2026-05-08 17:21 | 32.37984 | -6.38323 | 33967 ft | 517 kts | 63° |
| 2026-05-08 17:21 | 32.39636 | -6.34610 | 34252 ft | 517 kts | 59° |
| 2026-05-08 17:22 | 32.41695 | -6.31056 | 34508 ft | 516 kts | 49° |
| 2026-05-08 17:22 | 32.44076 | -6.27976 | 34774 ft | 514 kts | 41° |
| 2026-05-08 17:22 | 32.46855 | -6.25259 | 35064 ft | 510 kts | 31° |
| 2026-05-08 17:22 | 32.49769 | -6.22861 | 35264 ft | 511 kts | 30° |
| 2026-05-08 17:23 | 32.52708 | -6.20492 | 35467 ft | 511 kts | 30° |
| 2026-05-08 17:23 | 32.55647 | -6.18111 | 35746 ft | 511 kts | 30° |
| 2026-05-08 17:23 | 32.58530 | -6.15743 | 35908 ft | 513 kts | 31° |
| 2026-05-08 17:23 | 32.61465 | -6.13303 | 35872 ft | 517 kts | 31° |
| 2026-05-08 17:24 | 32.67321 | -6.08384 | 35864 ft | 514 kts | 31° |
| 2026-05-08 17:24 | 32.73105 | -6.03519 | 35880 ft | 507 kts | 31° |
| 2026-05-08 17:25 | 32.78873 | -5.98678 | 35887 ft | 509 kts | 31° |
| 2026-05-08 17:25 | 32.84656 | -5.93819 | 35871 ft | 510 kts | 31° |
| 2026-05-08 17:26 | 32.90452 | -5.88938 | 35892 ft | 510 kts | 31° |
| 2026-05-08 17:26 | 32.96245 | -5.84050 | 35890 ft | 511 kts | 31° |
| 2026-05-08 17:27 | 33.02061 | -5.79135 | 35880 ft | 513 kts | 31° |
| 2026-05-08 17:27 | 33.07881 | -5.74208 | 35895 ft | 515 kts | 31° |
| 2026-05-08 17:28 | 33.13719 | -5.69257 | 35868 ft | 514 kts | 31° |
| 2026-05-08 17:28 | 33.19548 | -5.64305 | 35884 ft | 514 kts | 31° |
| 2026-05-08 17:29 | 33.25370 | -5.59350 | 35899 ft | 513 kts | 31° |
| 2026-05-08 17:29 | 33.31167 | -5.54411 | 35902 ft | 511 kts | 31° |
| 2026-05-08 17:30 | 33.36952 | -5.49472 | 35912 ft | 510 kts | 32° |
| 2026-05-08 17:30 | 33.42728 | -5.44533 | 35907 ft | 510 kts | 32° |
| 2026-05-08 17:31 | 33.48494 | -5.39594 | 35919 ft | 510 kts | 32° |
| 2026-05-08 17:31 | 33.54260 | -5.34642 | 35919 ft | 510 kts | 32° |
| 2026-05-08 17:32 | 33.59984 | -5.29717 | 35927 ft | 510 kts | 32° |
| 2026-05-08 17:32 | 33.65743 | -5.24752 | 35922 ft | 510 kts | 32° |
| 2026-05-08 17:33 | 33.71507 | -5.19775 | 35908 ft | 510 kts | 32° |
| 2026-05-08 17:33 | 33.77266 | -5.14795 | 35894 ft | 511 kts | 32° |
| 2026-05-08 17:34 | 33.83028 | -5.09802 | 35892 ft | 510 kts | 32° |
| 2026-05-08 17:34 | 33.88789 | -5.04801 | 35888 ft | 511 kts | 32° |
| 2026-05-08 17:35 | 33.94549 | -4.99774 | 35882 ft | 512 kts | 33° |
| 2026-05-08 17:35 | 34.00231 | -4.94608 | 35874 ft | 512 kts | 34° |
| 2026-05-08 17:36 | 34.05891 | -4.89398 | 35883 ft | 512 kts | 34° |
| 2026-05-08 17:36 | 34.11566 | -4.84191 | 35870 ft | 512 kts | 34° |
| 2026-05-08 17:37 | 34.17264 | -4.78975 | 35876 ft | 519 kts | 34° |
| 2026-05-08 17:37 | 34.23066 | -4.73658 | 35850 ft | 529 kts | 34° |
| 2026-05-08 17:38 | 34.28977 | -4.68226 | 35854 ft | 538 kts | 34° |
| 2026-05-08 17:38 | 34.34978 | -4.62697 | 35848 ft | 545 kts | 34° |
| 2026-05-08 17:39 | 34.41012 | -4.57128 | 35811 ft | 546 kts | 34° |
| 2026-05-08 17:39 | 34.47032 | -4.51524 | 35835 ft | 546 kts | 35° |
| 2026-05-08 17:40 | 34.52034 | -4.46846 | 35830 ft | 546 kts | 35° |
| 2026-05-08 17:40 | 34.58035 | -4.41229 | 35848 ft | 545 kts | 35° |
| 2026-05-08 17:41 | 34.64035 | -4.35607 | 35865 ft | 544 kts | 35° |
| 2026-05-08 17:41 | 34.70990 | -4.29079 | 35849 ft | 543 kts | 35° |
| 2026-05-08 17:42 | 34.75986 | -4.24381 | 35891 ft | 543 kts | 35° |
| 2026-05-08 17:42 | 34.81924 | -4.18786 | 35886 ft | 543 kts | 35° |
| 2026-05-08 17:43 | 34.87890 | -4.13154 | 35883 ft | 542 kts | 35° |
| 2026-05-08 17:43 | 34.93838 | -4.07528 | 35899 ft | 542 kts | 35° |
| 2026-05-08 17:44 | 34.99785 | -4.01903 | 35895 ft | 540 kts | 35° |
| 2026-05-08 17:44 | 35.05701 | -3.96280 | 35888 ft | 540 kts | 35° |
| 2026-05-08 17:45 | 35.11649 | -3.90619 | 35895 ft | 543 kts | 35° |
| 2026-05-08 17:45 | 35.17621 | -3.84928 | 35888 ft | 546 kts | 35° |
| 2026-05-08 17:46 | 35.23646 | -3.79261 | 35882 ft | 547 kts | 34° |
| 2026-05-08 17:46 | 35.29727 | -3.73661 | 35886 ft | 547 kts | 34° |
| 2026-05-08 17:47 | 35.35798 | -3.68060 | 35885 ft | 546 kts | 34° |
| 2026-05-08 17:47 | 35.41849 | -3.62441 | 35891 ft | 545 kts | 34° |
| 2026-05-08 17:48 | 35.47890 | -3.56812 | 35895 ft | 545 kts | 34° |
| 2026-05-08 17:48 | 35.53927 | -3.51175 | 35900 ft | 545 kts | 34° |
| 2026-05-08 17:49 | 35.59960 | -3.45533 | 35895 ft | 545 kts | 34° |
| 2026-05-08 17:49 | 35.65990 | -3.39884 | 35901 ft | 545 kts | 34° |
| 2026-05-08 17:50 | 35.72009 | -3.34233 | 35932 ft | 545 kts | 34° |
| 2026-05-08 17:50 | 35.78042 | -3.28558 | 35913 ft | 546 kts | 34° |
| 2026-05-08 17:51 | 35.84072 | -3.22873 | 35911 ft | 546 kts | 34° |
| 2026-05-08 17:51 | 35.90073 | -3.17130 | 35910 ft | 546 kts | 35° |
| 2026-05-08 17:52 | 35.96064 | -3.11345 | 35916 ft | 547 kts | 35° |
| 2026-05-08 17:53 | 36.05048 | -3.02668 | 35911 ft | 547 kts | 34° |
| 2026-05-08 17:53 | 36.11040 | -2.96875 | 35921 ft | 546 kts | 34° |
| 2026-05-08 17:54 | 36.17022 | -2.91078 | 35917 ft | 546 kts | 34° |
| 2026-05-08 17:54 | 36.22998 | -2.85275 | 35953 ft | 546 kts | 34° |
| 2026-05-08 17:55 | 36.28940 | -2.79481 | 35930 ft | 547 kts | 34° |
| 2026-05-08 17:55 | 36.34918 | -2.73636 | 35927 ft | 547 kts | 34° |
| 2026-05-08 17:56 | 36.40892 | -2.67783 | 35929 ft | 548 kts | 34° |
| 2026-05-08 17:56 | 36.46869 | -2.61917 | 35930 ft | 547 kts | 35° |
| 2026-05-08 17:57 | 36.52835 | -2.56050 | 35940 ft | 548 kts | 34° |
| 2026-05-08 17:57 | 36.58813 | -2.50160 | 35938 ft | 548 kts | 34° |
| 2026-05-08 17:58 | 36.64786 | -2.44262 | 35939 ft | 548 kts | 35° |
| 2026-05-08 17:58 | 36.70767 | -2.38344 | 35940 ft | 549 kts | 35° |
| 2026-05-08 17:59 | 36.76743 | -2.32418 | 35936 ft | 550 kts | 34° |
| 2026-05-08 17:59 | 36.82742 | -2.26495 | 35930 ft | 548 kts | 32° |
| 2026-05-08 18:00 | 36.89233 | -2.21732 | 35941 ft | 539 kts | 21° |
| 2026-05-08 18:00 | 36.99250 | -2.15318 | 35968 ft | 539 kts | 21° |
| 2026-05-08 18:01 | 37.05893 | -2.10939 | 35958 ft | 540 kts | 22° |
| 2026-05-08 18:01 | 37.12522 | -2.06509 | 35958 ft | 540 kts | 22° |
| 2026-05-08 18:02 | 37.18025 | -2.02829 | 35956 ft | 539 kts | 22° |
| 2026-05-08 18:02 | 37.25764 | -1.97664 | 35958 ft | 540 kts | 21° |
| 2026-05-08 18:03 | 37.32444 | -1.93369 | 35958 ft | 539 kts | 20° |
| 2026-05-08 18:03 | 37.39141 | -1.89130 | 35935 ft | 539 kts | 20° |
| 2026-05-08 18:04 | 37.45822 | -1.84869 | 35948 ft | 538 kts | 20° |
| 2026-05-08 18:04 | 37.52496 | -1.80583 | 35956 ft | 538 kts | 20° |
| 2026-05-08 18:05 | 37.59159 | -1.76288 | 35946 ft | 538 kts | 21° |
| 2026-05-08 18:05 | 37.62344 | -1.73737 | 35937 ft | 547 kts | 36° |
| 2026-05-08 18:05 | 37.65071 | -1.70372 | 35965 ft | 552 kts | 48° |
| 2026-05-08 18:06 | 37.67314 | -1.66429 | 35942 ft | 553 kts | 60° |
| 2026-05-08 18:06 | 37.68975 | -1.62076 | 35957 ft | 552 kts | 69° |
| 2026-05-08 18:06 | 37.71846 | -1.53147 | 35977 ft | 553 kts | 70° |
| 2026-05-08 18:07 | 37.74745 | -1.44073 | 35954 ft | 554 kts | 69° |
| 2026-05-08 18:07 | 37.77673 | -1.35136 | 35960 ft | 555 kts | 69° |
| 2026-05-08 18:08 | 37.80660 | -1.26123 | 35971 ft | 557 kts | 68° |
| 2026-05-08 18:08 | 37.83655 | -1.17077 | 35962 ft | 557 kts | 69° |
| 2026-05-08 18:09 | 37.86637 | -1.08018 | 35958 ft | 558 kts | 68° |
| 2026-05-08 18:09 | 37.89609 | -0.98950 | 35960 ft | 558 kts | 68° |
| 2026-05-08 18:10 | 37.92572 | -0.89879 | 35964 ft | 558 kts | 69° |
| 2026-05-08 18:10 | 37.95530 | -0.80795 | 35990 ft | 558 kts | 69° |
| 2026-05-08 18:11 | 37.98484 | -0.71696 | 35952 ft | 558 kts | 68° |
| 2026-05-08 18:11 | 38.01429 | -0.62599 | 35959 ft | 558 kts | 68° |
| 2026-05-08 18:12 | 38.04368 | -0.53487 | 35963 ft | 558 kts | 68° |
| 2026-05-08 18:12 | 38.07298 | -0.44375 | 35965 ft | 558 kts | 68° |
| 2026-05-08 18:13 | 38.10221 | -0.35255 | 35966 ft | 558 kts | 69° |
| 2026-05-08 18:13 | 38.13138 | -0.26127 | 35963 ft | 558 kts | 69° |
| 2026-05-08 18:14 | 38.16048 | -0.16988 | 35966 ft | 558 kts | 69° |
| 2026-05-08 18:14 | 38.18949 | -0.07851 | 35963 ft | 558 kts | 69° |
| 2026-05-08 18:15 | 38.21848 | 0.01312 | 35959 ft | 558 kts | 68° |
| 2026-05-08 18:15 | 38.24695 | 0.10338 | 35932 ft | 536 kts | 68° |
| 2026-05-08 18:16 | 38.26066 | 0.14694 | 35655 ft | 528 kts | 68° |
| 2026-05-08 18:16 | 38.27423 | 0.19012 | 35330 ft | 523 kts | 68° |
| 2026-05-08 18:16 | 38.28767 | 0.23297 | 34954 ft | 519 kts | 68° |
| 2026-05-08 18:16 | 38.30100 | 0.27553 | 34609 ft | 515 kts | 68° |
| 2026-05-08 18:17 | 38.31418 | 0.31770 | 34379 ft | 514 kts | 68° |
| 2026-05-08 18:17 | 38.32752 | 0.36040 | 34180 ft | 526 kts | 68° |
| 2026-05-08 18:17 | 38.34119 | 0.40424 | 33959 ft | 536 kts | 68° |
| 2026-05-08 18:17 | 38.35495 | 0.44842 | 33685 ft | 536 kts | 68° |
| 2026-05-08 18:18 | 38.36862 | 0.49242 | 33413 ft | 532 kts | 68° |
| 2026-05-08 18:18 | 38.38195 | 0.53539 | 33099 ft | 526 kts | 68° |
| 2026-05-08 18:18 | 38.39549 | 0.57910 | 32708 ft | 521 kts | 68° |
| 2026-05-08 18:18 | 38.40854 | 0.62130 | 32294 ft | 517 kts | 68° |
| 2026-05-08 18:19 | 38.42166 | 0.66379 | 31878 ft | 513 kts | 68° |
| 2026-05-08 18:19 | 38.43467 | 0.70598 | 31470 ft | 510 kts | 68° |
| 2026-05-08 18:19 | 38.44759 | 0.74793 | 31065 ft | 506 kts | 68° |
| 2026-05-08 18:19 | 38.46039 | 0.78957 | 30649 ft | 502 kts | 67° |
| 2026-05-08 18:20 | 38.47308 | 0.83091 | 30253 ft | 499 kts | 67° |
| 2026-05-08 18:20 | 38.48567 | 0.87200 | 29823 ft | 495 kts | 67° |
| 2026-05-08 18:20 | 38.49815 | 0.91276 | 29359 ft | 491 kts | 67° |
| 2026-05-08 18:20 | 38.51052 | 0.95321 | 28920 ft | 487 kts | 68° |
| 2026-05-08 18:21 | 38.52275 | 0.99328 | 28517 ft | 482 kts | 68° |
| 2026-05-08 18:21 | 38.53483 | 1.03291 | 28080 ft | 477 kts | 68° |
| 2026-05-08 18:21 | 38.54682 | 1.07231 | 27669 ft | 473 kts | 68° |
| 2026-05-08 18:21 | 38.55865 | 1.11126 | 27242 ft | 469 kts | 68° |
| 2026-05-08 18:22 | 38.57040 | 1.14997 | 26817 ft | 465 kts | 68° |
| 2026-05-08 18:22 | 38.58202 | 1.18831 | 26416 ft | 461 kts | 68° |
| 2026-05-08 18:22 | 38.59354 | 1.22639 | 26013 ft | 457 kts | 68° |
| 2026-05-08 18:22 | 38.60496 | 1.26417 | 25612 ft | 454 kts | 69° |
| 2026-05-08 18:23 | 38.61628 | 1.30167 | 25218 ft | 450 kts | 69° |
| 2026-05-08 18:23 | 38.62750 | 1.33889 | 24823 ft | 447 kts | 69° |
| 2026-05-08 18:23 | 38.63863 | 1.37589 | 24425 ft | 444 kts | 69° |
| 2026-05-08 18:23 | 38.64969 | 1.41268 | 24037 ft | 442 kts | 69° |
| 2026-05-08 18:24 | 38.66068 | 1.44928 | 23627 ft | 440 kts | 69° |
| 2026-05-08 18:24 | 38.67159 | 1.48571 | 23167 ft | 437 kts | 70° |
| 2026-05-08 18:24 | 38.68241 | 1.52186 | 22733 ft | 433 kts | 70° |
| 2026-05-08 18:24 | 38.69312 | 1.55769 | 22308 ft | 429 kts | 69° |
| 2026-05-08 18:25 | 38.70372 | 1.59319 | 21921 ft | 425 kts | 69° |
| 2026-05-08 18:25 | 38.71422 | 1.62842 | 21530 ft | 421 kts | 69° |
| 2026-05-08 18:25 | 38.72461 | 1.66331 | 21147 ft | 418 kts | 69° |
| 2026-05-08 18:25 | 38.73491 | 1.69795 | 20765 ft | 415 kts | 69° |
| 2026-05-08 18:26 | 38.74512 | 1.73235 | 20388 ft | 411 kts | 69° |
| 2026-05-08 18:26 | 38.75525 | 1.76650 | 20010 ft | 409 kts | 69° |
| 2026-05-08 18:26 | 38.76529 | 1.80039 | 19653 ft | 405 kts | 69° |
| 2026-05-08 18:26 | 38.77520 | 1.83387 | 19390 ft | 399 kts | 69° |
| 2026-05-08 18:27 | 38.78172 | 1.85592 | 19137 ft | 398 kts | 69° |
| 2026-05-08 18:27 | 38.78820 | 1.87784 | 18892 ft | 397 kts | 69° |
| 2026-05-08 18:27 | 38.80150 | 1.92180 | 18385 ft | 394 kts | 64° |
| 2026-05-08 18:27 | 38.81656 | 1.95089 | 17973 ft | 390 kts | 49° |
| 2026-05-08 18:28 | 38.83344 | 1.97794 | 17564 ft | 388 kts | 49° |
| 2026-05-08 18:28 | 38.85024 | 2.00486 | 17161 ft | 386 kts | 49° |
| 2026-05-08 18:28 | 38.86686 | 2.03175 | 16765 ft | 384 kts | 50° |
| 2026-05-08 18:28 | 38.88329 | 2.05856 | 16400 ft | 381 kts | 50° |
| 2026-05-08 18:29 | 38.89958 | 2.08534 | 15997 ft | 379 kts | 50° |
| 2026-05-08 18:29 | 38.91572 | 2.11199 | 15624 ft | 377 kts | 50° |
| 2026-05-08 18:29 | 38.93177 | 2.13856 | 15251 ft | 375 kts | 50° |
| 2026-05-08 18:29 | 38.94772 | 2.16501 | 14873 ft | 373 kts | 50° |
| 2026-05-08 18:30 | 38.96337 | 2.19098 | 14499 ft | 372 kts | 51° |
| 2026-05-08 18:30 | 38.97916 | 2.21719 | 14124 ft | 370 kts | 51° |
| 2026-05-08 18:30 | 38.99487 | 2.24329 | 13733 ft | 369 kts | 51° |
| 2026-05-08 18:30 | 39.01054 | 2.26935 | 13316 ft | 367 kts | 51° |
| 2026-05-08 18:31 | 39.02608 | 2.29519 | 12999 ft | 362 kts | 51° |
| 2026-05-08 18:31 | 39.04118 | 2.32036 | 12976 ft | 349 kts | 51° |
| 2026-05-08 18:31 | 39.05571 | 2.34461 | 12963 ft | 335 kts | 51° |
| 2026-05-08 18:31 | 39.06970 | 2.36797 | 12962 ft | 323 kts | 51° |
| 2026-05-08 18:32 | 39.08327 | 2.39062 | 12964 ft | 318 kts | 51° |
| 2026-05-08 18:32 | 39.09678 | 2.41318 | 12973 ft | 319 kts | 51° |
| 2026-05-08 18:32 | 39.11026 | 2.43570 | 12874 ft | 316 kts | 51° |
| 2026-05-08 18:32 | 39.12361 | 2.45803 | 12512 ft | 313 kts | 51° |
| 2026-05-08 18:33 | 39.13692 | 2.48030 | 12022 ft | 314 kts | 51° |
| 2026-05-08 18:33 | 39.15021 | 2.50257 | 11563 ft | 312 kts | 51° |
| 2026-05-08 18:33 | 39.16337 | 2.52464 | 11149 ft | 309 kts | 51° |
| 2026-05-08 18:33 | 39.17641 | 2.54651 | 10739 ft | 306 kts | 51° |
| 2026-05-08 18:34 | 39.18942 | 2.56836 | 10162 ft | 310 kts | 51° |
| 2026-05-08 18:34 | 39.20259 | 2.59047 | 9599 ft | 312 kts | 51° |
| 2026-05-08 18:34 | 39.21572 | 2.61254 | 9126 ft | 309 kts | 52° |
| 2026-05-08 18:34 | 39.22872 | 2.63443 | 8925 ft | 304 kts | 51° |
| 2026-05-08 18:35 | 39.24411 | 2.65250 | 8610 ft | 298 kts | 24° |
| 2026-05-08 18:35 | 39.26386 | 2.65815 | 8269 ft | 290 kts | 352° |
| 2026-05-08 18:35 | 39.28234 | 2.64988 | 7916 ft | 278 kts | 320° |
| 2026-05-08 18:35 | 39.29382 | 2.63106 | 7569 ft | 265 kts | 288° |
| 2026-05-08 18:36 | 39.29892 | 2.60863 | 7257 ft | 258 kts | 282° |
| 2026-05-08 18:36 | 39.30344 | 2.58630 | 6937 ft | 256 kts | 282° |
| 2026-05-08 18:36 | 39.30787 | 2.56414 | 6681 ft | 255 kts | 282° |
| 2026-05-08 18:36 | 39.31227 | 2.54194 | 6424 ft | 255 kts | 282° |
| 2026-05-08 18:37 | 39.31661 | 2.51989 | 6129 ft | 252 kts | 282° |
| 2026-05-08 18:37 | 39.32079 | 2.49828 | 5839 ft | 245 kts | 282° |
| 2026-05-08 18:37 | 39.32489 | 2.47717 | 5558 ft | 239 kts | 282° |
| 2026-05-08 18:37 | 39.32934 | 2.45671 | 5255 ft | 236 kts | 294° |
| 2026-05-08 18:38 | 39.34026 | 2.44159 | 4962 ft | 234 kts | 336° |
| 2026-05-08 18:38 | 39.35598 | 2.43876 | 4686 ft | 232 kts | 11° |
| 2026-05-08 18:38 | 39.37189 | 2.44277 | 4384 ft | 234 kts | 13° |
| 2026-05-08 18:38 | 39.38791 | 2.44675 | 4104 ft | 235 kts | 13° |
| 2026-05-08 18:39 | 39.40394 | 2.45082 | 3837 ft | 234 kts | 17° |
| 2026-05-08 18:39 | 39.41770 | 2.46098 | 3583 ft | 228 kts | 45° |
| 2026-05-08 18:39 | 39.43040 | 2.47318 | 3345 ft | 229 kts | 31° |
| 2026-05-08 18:39 | 39.44356 | 2.48427 | 3087 ft | 226 kts | 50° |
| 2026-05-08 18:40 | 39.45072 | 2.50192 | 2862 ft | 220 kts | 70° |
| 2026-05-08 18:40 | 39.45724 | 2.51954 | 2625 ft | 214 kts | 62° |
| 2026-05-08 18:40 | 39.46478 | 2.53556 | 2366 ft | 202 kts | 60° |
| 2026-05-08 18:40 | 39.47182 | 2.55034 | 2147 ft | 184 kts | 60° |
| 2026-05-08 18:41 | 39.47810 | 2.56368 | 2086 ft | 162 kts | 61° |
| 2026-05-08 18:41 | 39.48367 | 2.57555 | 2084 ft | 149 kts | 61° |
| 2026-05-08 18:41 | 39.48890 | 2.58670 | 2109 ft | 146 kts | 61° |
| 2026-05-08 18:41 | 39.49423 | 2.59809 | 1998 ft | 146 kts | 61° |
| 2026-05-08 18:42 | 39.49937 | 2.60903 | 1823 ft | 140 kts | 62° |
| 2026-05-08 18:42 | 39.50435 | 2.61963 | 1625 ft | 136 kts | 62° |
| 2026-05-08 18:42 | 39.50929 | 2.63015 | 1451 ft | 136 kts | 62° |
| 2026-05-08 18:42 | 39.51420 | 2.64061 | 1270 ft | 136 kts | 60° |
| 2026-05-08 18:43 | 39.51917 | 2.65117 | 1093 ft | 137 kts | 61° |
| 2026-05-08 18:43 | 39.52420 | 2.66188 | 912 ft | 140 kts | 62° |
| 2026-05-08 18:43 | 39.52927 | 2.67268 | 739 ft | 139 kts | 61° |
| 2026-05-08 18:43 | 39.53432 | 2.68334 | 539 ft | 139 kts | 60° |
| 2026-05-08 18:44 | 39.53937 | 2.69416 | 361 ft | 141 kts | 60° |
| 2026-05-08 18:44 | 39.54438 | 2.70485 | 167 ft | 139 kts | 58° |
| 2026-05-08 18:44 | 39.54943 | 2.71549 | 40 ft | 128 kts | 59° |
| 2026-05-08 18:44 | 39.55313 | 2.72336 | 37 ft | 70 kts | 59° |
| 2026-05-08 18:45 | 39.55483 | 2.72738 | 37 ft | 47 kts | 73° |
| 2026-05-08 18:45 | 39.55498 | 2.72979 | 37 ft | 17 kts | 89° |
| 2026-05-08 18:45 | 39.55501 | 2.73126 | 37 ft | 16 kts | 88° |
| 2026-05-08 18:45 | 39.55539 | 2.73257 | 36 ft | 15 kts | 58° |
| 2026-05-08 18:46 | 39.55595 | 2.73371 | 37 ft | 15 kts | 58° |
| 2026-05-08 18:46 | 39.55618 | 2.73489 | 37 ft | 14 kts | 117° |
| 2026-05-08 18:46 | 39.55541 | 2.73562 | 37 ft | 13 kts | 149° |
| 2026-05-08 18:46 | 39.55463 | 2.73624 | 37 ft | 13 kts | 148° |
| 2026-05-08 18:47 | 39.55377 | 2.73692 | 37 ft | 16 kts | 148° |
| 2026-05-08 18:47 | 39.55275 | 2.73774 | 37 ft | 19 kts | 148° |
| 2026-05-08 18:47 | 39.55158 | 2.73867 | 37 ft | 21 kts | 148° |
| 2026-05-08 18:47 | 39.55030 | 2.73971 | 37 ft | 23 kts | 148° |
| 2026-05-08 18:48 | 39.54888 | 2.74082 | 37 ft | 25 kts | 149° |
| 2026-05-08 18:48 | 39.54766 | 2.74077 | 37 ft | 19 kts | 236° |
| 2026-05-08 18:48 | 39.54697 | 2.73932 | 37 ft | 19 kts | 238° |
| 2026-05-08 18:48 | 39.54629 | 2.73792 | 37 ft | 18 kts | 238° |
| 2026-05-08 18:49 | 39.54582 | 2.73684 | 37 ft | 12 kts | 259° |
| 2026-05-08 18:49 | 39.54634 | 2.73623 | 37 ft | 11 kts | 349° |
| 2026-05-08 18:49 | 39.54690 | 2.73616 | 37 ft | 5 kts | 38° |
| 2026-05-08 18:49 | 39.54711 | 2.73654 | 37 ft | 5 kts | 62° |
| 2026-05-08 18:50 | 39.54714 | 2.73660 | 37 ft | 0 kts | 59° |
| 2026-05-08 18:50 | 39.54714 | 2.73661 | 37 ft | 0 kts | 59° |